Time,TemperatureF,DewpointF,PressureIn,WindDirection,WindDirectionDegrees,WindSpeedMPH,WindSpeedGustMPH,Humidity,HourlyPrecipIn,Conditions,Clouds,dailyrainin,SoftwareType,DateUTC
2013-02-04 00:00:00,17.8,12.8,29.77,WSW,252,10.1,15.0,80,0.00,,,0.00,VWS V14.01,2013-02-04 05:00:00,
2013-02-04 00:10:00,17.6,11.4,29.77,WSW,256,8.7,11.0,76,0.00,,,0.00,VWS V14.01,2013-02-04 05:10:00,
2013-02-04 00:20:00,17.4,11.0,29.77,WSW,247,7.6,11.0,75,0.00,,,0.00,VWS V14.01,2013-02-04 05:20:00,
2013-02-04 00:25:00,17.4,10.7,29.77,WSW,256,5.8,13.2,74,0.00,,,0.00,VWS V14.01,2013-02-04 05:25:00,
2013-02-04 00:30:00,17.2,10.2,29.77,SW,225,13.2,13.2,73,0.00,,,0.00,VWS V14.01,2013-02-04 05:30:00,
2013-02-04 00:40:00,17.4,9.7,29.77,WSW,243,10.5,15.0,71,0.00,,,0.00,VWS V14.01,2013-02-04 05:40:00,
2013-02-04 00:45:00,17.4,9.7,29.77,WSW,246,8.3,15.0,71,0.00,,,0.00,VWS V14.01,2013-02-04 05:45:00,
2013-02-04 00:55:00,17.2,9.6,29.77,West,267,6.3,11.0,71,0.00,,,0.00,VWS V14.01,2013-02-04 05:55:00,
2013-02-04 01:05:00,17.1,9.4,29.77,West,276,6.3,8.7,71,0.00,,,0.00,VWS V14.01,2013-02-04 06:05:00,
2013-02-04 01:15:00,16.9,8.9,29.77,WSW,257,8.3,13.2,70,0.00,,,0.00,VWS V14.01,2013-02-04 06:15:00,
2013-02-04 01:20:00,16.7,8.7,29.77,West,262,8.7,13.2,70,0.00,,,0.00,VWS V14.01,2013-02-04 06:20:00,
2013-02-04 01:30:00,16.3,8.4,29.77,WSW,250,8.7,13.2,70,0.00,,,0.00,VWS V14.01,2013-02-04 06:30:00,
2013-02-04 01:35:00,16.2,8.2,29.77,SSW,204,5.4,13.2,70,0.00,,,0.00,VWS V14.01,2013-02-04 06:35:00,
2013-02-04 01:40:00,16.2,8.2,29.77,SW,225,5.4,13.2,70,0.00,,,0.00,VWS V14.01,2013-02-04 06:40:00,
2013-02-04 01:50:00,16.0,8.0,29.77,WSW,254,8.1,12.3,70,0.00,,,0.00,VWS V14.01,2013-02-04 06:50:00,
2013-02-04 01:55:00,16.0,8.0,29.74,West,264,6.3,12.3,70,0.00,,,0.00,VWS V14.01,2013-02-04 06:55:00,
2013-02-04 02:05:00,15.8,7.9,29.74,WSW,253,8.1,13.2,70,0.00,,,0.00,VWS V14.01,2013-02-04 07:05:00,
2013-02-04 02:15:00,15.8,7.9,29.77,SW,216,6.3,13.2,70,0.00,,,0.00,VWS V14.01,2013-02-04 07:15:00,
2013-02-04 02:25:00,15.8,7.9,29.77,SW,233,5.4,12.8,70,0.00,,,0.00,VWS V14.01,2013-02-04 07:25:00,
2013-02-04 02:30:00,16.0,8.0,29.77,WSW,258,11.0,11.0,70,0.00,,,0.00,VWS V14.01,2013-02-04 07:30:00,
2013-02-04 02:40:00,16.2,8.2,29.77,SW,218,8.3,12.3,70,0.00,,,0.00,VWS V14.01,2013-02-04 07:40:00,
2013-02-04 02:50:00,16.5,8.6,29.77,SW,228,7.2,11.0,70,0.00,,,0.00,VWS V14.01,2013-02-04 07:50:00,
2013-02-04 03:00:00,16.3,8.1,29.77,SW,222,11.0,16.3,69,0.00,,,0.00,VWS V14.01,2013-02-04 08:00:00,
2013-02-04 03:10:00,16.2,7.2,29.77,SSW,212,8.1,14.5,67,0.00,,,0.00,VWS V14.01,2013-02-04 08:10:00,
2013-02-04 03:15:00,16.2,6.9,29.77,WSW,256,5.8,14.5,66,0.00,,,0.00,VWS V14.01,2013-02-04 08:15:00,
2013-02-04 03:25:00,16.2,6.9,29.77,SSW,198,7.6,11.0,66,0.00,,,0.00,VWS V14.01,2013-02-04 08:25:00,
2013-02-04 03:35:00,16.2,6.6,29.77,WSW,245,7.6,14.5,65,0.00,,,0.00,VWS V14.01,2013-02-04 08:35:00,
2013-02-04 03:40:00,16.0,6.4,29.77,SSW,205,10.5,14.5,65,0.00,,,0.00,VWS V14.01,2013-02-04 08:40:00,
2013-02-04 03:50:00,16.2,6.2,29.77,SW,220,8.3,17.0,64,0.00,,,0.00,VWS V14.01,2013-02-04 08:50:00,
2013-02-04 04:00:00,16.0,6.1,29.77,SW,230,7.6,13.6,64,0.00,,,0.00,VWS V14.01,2013-02-04 09:00:00,
2013-02-04 04:05:00,16.0,5.7,29.77,SSW,208,8.3,12.8,63,0.00,,,0.00,VWS V14.01,2013-02-04 09:05:00,
2013-02-04 04:15:00,16.0,5.7,29.77,SW,231,5.4,12.8,63,0.00,,,0.00,VWS V14.01,2013-02-04 09:15:00,
2013-02-04 04:25:00,16.0,6.1,29.77,West,265,5.4,15.4,64,0.00,,,0.00,VWS V14.01,2013-02-04 09:25:00,
2013-02-04 04:35:00,16.0,6.1,29.77,West,266,13.2,13.2,64,0.00,,,0.00,VWS V14.01,2013-02-04 09:35:00,
2013-02-04 04:45:00,16.2,6.9,29.80,SW,235,10.5,15.4,66,0.00,,,0.00,VWS V14.01,2013-02-04 09:45:00,
2013-02-04 04:50:00,16.2,6.9,29.80,SW,225,15.4,17.0,66,0.00,,,0.00,VWS V14.01,2013-02-04 09:50:00,
2013-02-04 05:00:00,16.2,6.9,29.77,WSW,244,15.4,18.8,66,0.00,,,0.00,VWS V14.01,2013-02-04 10:00:00,
2013-02-04 05:10:00,16.2,6.6,29.80,SW,236,10.1,18.8,65,0.00,,,0.00,VWS V14.01,2013-02-04 10:10:00,
2013-02-04 05:20:00,16.0,6.4,29.80,South,180,5.4,15.4,65,0.00,,,0.00,VWS V14.01,2013-02-04 10:20:00,
2013-02-04 05:25:00,16.0,6.1,29.80,SW,232,5.4,15.4,64,0.00,,,0.00,VWS V14.01,2013-02-04 10:25:00,
2013-02-04 05:35:00,16.0,6.1,29.80,WSW,251,11.0,15.0,64,0.00,,,0.00,VWS V14.01,2013-02-04 10:35:00,
2013-02-04 05:45:00,16.3,6.4,29.77,West,262,13.2,15.0,64,0.00,,,0.00,VWS V14.01,2013-02-04 10:45:00,
2013-02-04 05:55:00,16.5,6.6,29.80,WSW,241,12.8,15.4,64,0.00,,,0.00,VWS V14.01,2013-02-04 10:55:00,
2013-02-04 06:00:00,16.7,7.4,29.80,West,273,8.7,21.9,66,0.00,,,0.00,VWS V14.01,2013-02-04 11:00:00,
2013-02-04 06:10:00,16.5,8.2,29.80,West,268,13.2,19.7,69,0.00,,,0.00,VWS V14.01,2013-02-04 11:10:00,
2013-02-04 06:20:00,16.2,8.5,29.80,SW,235,14.1,18.3,71,0.00,,,0.00,VWS V14.01,2013-02-04 11:20:00,
2013-02-04 06:25:00,16.2,8.8,29.80,West,266,8.7,17.9,72,0.00,,,0.00,VWS V14.01,2013-02-04 11:25:00,
2013-02-04 06:35:00,15.8,8.8,29.80,WSW,251,8.7,20.1,73,0.00,,,0.00,VWS V14.01,2013-02-04 11:35:00,
2013-02-04 06:45:00,15.8,8.8,29.80,West,269,13.2,20.1,73,0.00,,,0.00,VWS V14.01,2013-02-04 11:45:00,
2013-02-04 06:55:00,16.0,8.7,29.80,WSW,238,11.0,15.4,72,0.00,,,0.00,VWS V14.01,2013-02-04 11:55:00,
2013-02-04 07:05:00,16.0,8.7,29.80,WNW,286,12.8,16.3,72,0.00,,,0.00,VWS V14.01,2013-02-04 12:05:00,
2013-02-04 07:10:00,16.0,8.4,29.80,West,260,12.8,16.3,71,0.00,,,0.00,VWS V14.01,2013-02-04 12:10:00,
2013-02-04 07:20:00,15.8,7.9,29.80,West,270,12.8,18.3,70,0.00,,,0.00,VWS V14.01,2013-02-04 12:20:00,
2013-02-04 07:30:00,15.8,7.9,29.83,WSW,240,8.7,17.4,70,0.00,,,0.00,VWS V14.01,2013-02-04 12:30:00,
2013-02-04 07:40:00,15.8,7.5,29.83,WSW,252,5.4,17.4,69,0.00,,,0.00,VWS V14.01,2013-02-04 12:40:00,
2013-02-04 07:45:00,15.8,7.2,29.83,WSW,237,12.8,17.4,68,0.00,,,0.00,VWS V14.01,2013-02-04 12:45:00,
2013-02-04 07:55:00,15.6,6.7,29.83,WSW,242,8.7,16.8,67,0.00,,,0.00,VWS V14.01,2013-02-04 12:55:00,
2013-02-04 08:00:00,15.6,6.4,29.83,WSW,240,5.4,17.4,66,0.00,,,0.00,VWS V14.01,2013-02-04 13:00:00,
2013-02-04 08:05:00,15.8,6.6,29.83,SW,236,8.1,17.4,66,0.00,,,0.00,VWS V14.01,2013-02-04 13:05:00,
2013-02-04 08:15:00,15.8,6.2,29.83,West,273,8.1,19.7,65,0.00,,,0.00,VWS V14.01,2013-02-04 13:15:00,
2013-02-04 08:20:00,15.8,6.2,29.83,West,271,10.5,20.1,65,0.00,,,0.00,VWS V14.01,2013-02-04 13:20:00,
2013-02-04 08:30:00,16.0,6.1,29.83,WSW,239,6.3,17.4,64,0.00,,,0.00,VWS V14.01,2013-02-04 13:30:00,
2013-02-04 08:40:00,16.5,6.6,29.83,West,264,10.5,15.0,64,0.00,,,0.00,VWS V14.01,2013-02-04 13:40:00,
2013-02-04 08:45:00,16.9,6.6,29.83,WSW,237,12.8,15.4,63,0.00,,,0.00,VWS V14.01,2013-02-04 13:45:00,
2013-02-04 08:55:00,17.1,6.4,29.83,WSW,254,14.5,21.0,62,0.00,,,0.00,VWS V14.01,2013-02-04 13:55:00,
2013-02-04 09:05:00,17.6,6.6,29.83,WSW,237,8.7,20.6,61,0.00,,,0.00,VWS V14.01,2013-02-04 14:05:00,
2013-02-04 09:15:00,18.1,6.3,29.83,WSW,239,17.0,23.3,59,0.00,,,0.00,VWS V14.01,2013-02-04 14:15:00,
2013-02-04 09:25:00,18.1,6.3,29.83,West,266,8.3,23.3,59,0.00,,,0.00,VWS V14.01,2013-02-04 14:25:00,
2013-02-04 09:30:00,18.1,6.3,29.83,WSW,253,10.5,19.7,59,0.00,,,0.00,VWS V14.01,2013-02-04 14:30:00,
2013-02-04 09:35:00,18.3,6.5,29.83,WSW,256,8.1,18.8,59,0.00,,,0.00,VWS V14.01,2013-02-04 14:35:00,
2013-02-04 09:40:00,18.5,6.3,29.83,SW,235,15.0,24.2,58,0.00,,,0.00,VWS V14.01,2013-02-04 14:40:00,
2013-02-04 09:50:00,18.1,6.0,29.83,SW,221,23.7,24.2,58,0.00,,,0.00,VWS V14.01,2013-02-04 14:50:00,
2013-02-04 10:00:00,18.0,5.4,29.83,WNW,288,10.5,23.7,57,0.00,,,0.00,VWS V14.01,2013-02-04 15:00:00,
2013-02-04 10:05:00,18.0,5.4,29.83,WSW,247,8.7,17.9,57,0.00,,,0.00,VWS V14.01,2013-02-04 15:05:00,
2013-02-04 10:10:00,18.5,5.9,29.85,WSW,242,12.8,22.8,57,0.00,,,0.00,VWS V14.01,2013-02-04 15:10:00,
2013-02-04 10:15:00,18.9,5.9,29.85,West,275,12.8,22.8,56,0.00,,,0.00,VWS V14.01,2013-02-04 15:15:00,
2013-02-04 10:20:00,18.7,5.3,29.85,WSW,250,13.2,17.9,55,0.00,,,0.00,VWS V14.01,2013-02-04 15:20:00,
2013-02-04 10:25:00,18.5,4.8,29.83,WSW,240,11.0,23.7,54,0.00,,,0.00,VWS V14.01,2013-02-04 15:25:00,
2013-02-04 10:35:00,18.5,4.8,29.83,WNW,287,8.3,23.7,54,0.00,,,0.00,VWS V14.01,2013-02-04 15:35:00,
2013-02-04 10:40:00,18.7,4.9,29.83,West,281,15.9,20.6,54,0.00,,,0.00,VWS V14.01,2013-02-04 15:40:00,
2013-02-04 10:50:00,19.2,5.4,29.83,WSW,243,20.1,20.1,54,0.00,,,0.00,VWS V14.01,2013-02-04 15:50:00,
2013-02-04 11:00:00,19.0,4.9,29.83,West,265,17.9,22.8,53,0.00,,,0.00,VWS V14.01,2013-02-04 16:00:00,
2013-02-04 11:05:00,18.9,4.7,29.83,WNW,285,11.0,23.3,53,0.00,,,0.00,VWS V14.01,2013-02-04 16:05:00,
2013-02-04 11:15:00,19.2,4.6,29.83,West,276,10.5,18.3,52,0.00,,,0.00,VWS V14.01,2013-02-04 16:15:00,
2013-02-04 11:25:00,19.2,4.2,29.85,WSW,257,22.8,22.8,51,0.00,,,0.00,VWS V14.01,2013-02-04 16:25:00,
2013-02-04 11:35:00,19.2,4.2,29.85,WSW,239,12.3,23.3,51,0.00,,,0.00,VWS V14.01,2013-02-04 16:35:00,
2013-02-04 11:45:00,19.8,4.3,29.83,West,275,8.3,22.4,50,0.00,,,0.00,VWS V14.01,2013-02-04 16:45:00,
2013-02-04 11:50:00,19.9,4.4,29.83,West,260,12.8,19.2,50,0.00,,,0.00,VWS V14.01,2013-02-04 16:50:00,
2013-02-04 11:55:00,20.3,5.2,29.83,SW,225,12.8,19.2,51,0.00,,,0.00,VWS V14.01,2013-02-04 16:55:00,
2013-02-04 12:00:00,20.3,5.2,29.83,West,263,15.9,19.2,51,0.00,,,0.00,VWS V14.01,2013-02-04 17:00:00,
2013-02-04 12:10:00,20.1,5.0,29.83,SW,223,21.9,27.1,51,0.00,,,0.00,VWS V14.01,2013-02-04 17:10:00,
2013-02-04 12:20:00,20.1,5.0,29.83,West,263,12.8,27.1,51,0.00,,,0.00,VWS V14.01,2013-02-04 17:20:00,
2013-02-04 12:25:00,20.1,5.0,29.83,WSW,258,15.4,21.5,51,0.00,,,0.00,VWS V14.01,2013-02-04 17:25:00,
2013-02-04 12:35:00,20.3,5.2,29.83,SW,230,21.0,22.8,51,0.00,,,0.00,VWS V14.01,2013-02-04 17:35:00,
2013-02-04 12:40:00,20.3,5.6,29.83,SSW,208,10.5,26.2,52,0.00,,,0.00,VWS V14.01,2013-02-04 17:40:00,
2013-02-04 12:45:00,20.3,5.6,29.83,WSW,237,14.1,26.2,52,0.00,,,0.00,VWS V14.01,2013-02-04 17:45:00,
2013-02-04 12:55:00,20.8,6.1,29.83,West,261,13.6,21.0,52,0.00,,,0.00,VWS V14.01,2013-02-04 17:55:00,
2013-02-04 13:00:00,20.8,5.7,29.83,WSW,257,16.8,24.6,51,0.00,,,0.00,VWS V14.01,2013-02-04 18:00:00,
2013-02-04 13:10:00,20.8,5.7,29.83,SW,226,8.3,23.3,51,0.00,,,0.00,VWS V14.01,2013-02-04 18:10:00,
2013-02-04 13:20:00,20.7,5.5,29.83,WSW,257,10.5,20.6,51,0.00,,,0.00,VWS V14.01,2013-02-04 18:20:00,
2013-02-04 13:30:00,20.7,5.5,29.83,WSW,237,13.2,16.8,51,0.00,,,0.00,VWS V14.01,2013-02-04 18:30:00,
2013-02-04 13:35:00,20.7,5.5,29.83,WSW,250,7.6,16.8,51,0.00,,,0.00,VWS V14.01,2013-02-04 18:35:00,
2013-02-04 13:45:00,20.7,5.5,29.83,WSW,239,6.3,15.4,51,0.00,,,0.00,VWS V14.01,2013-02-04 18:45:00,
2013-02-04 13:55:00,20.8,5.7,29.83,WSW,258,12.3,19.7,51,0.00,,,0.00,VWS V14.01,2013-02-04 18:55:00,
2013-02-04 14:00:00,20.3,5.2,29.83,SW,233,13.6,19.7,51,0.00,,,0.00,VWS V14.01,2013-02-04 19:00:00,
2013-02-04 14:05:00,20.1,5.4,29.83,West,260,12.3,17.0,52,0.00,,,0.00,VWS V14.01,2013-02-04 19:05:00,
2013-02-04 14:10:00,19.8,5.1,29.83,WSW,249,11.0,17.0,52,0.00,,,0.00,VWS V14.01,2013-02-04 19:10:00,
2013-02-04 14:15:00,19.8,5.1,29.83,WSW,245,11.0,17.0,52,0.00,,,0.00,VWS V14.01,2013-02-04 19:15:00,
2013-02-04 14:20:00,19.8,5.1,29.83,WSW,246,12.8,15.4,52,0.00,,,0.00,VWS V14.01,2013-02-04 19:20:00,
2013-02-04 14:30:00,19.9,4.9,29.83,SSW,213,15.4,16.3,51,0.00,,,0.00,VWS V14.01,2013-02-04 19:30:00,
2013-02-04 14:35:00,20.1,5.0,29.83,SW,228,10.5,17.0,51,0.00,,,0.00,VWS V14.01,2013-02-04 19:35:00,
2013-02-04 14:45:00,20.1,5.0,29.83,SW,218,8.7,17.4,51,0.00,,,0.00,VWS V14.01,2013-02-04 19:45:00,
2013-02-04 14:50:00,19.9,5.3,29.83,WSW,237,11.0,17.4,52,0.00,,,0.00,VWS V14.01,2013-02-04 19:50:00,
2013-02-04 14:55:00,19.9,5.3,29.83,WSW,250,8.1,15.4,52,0.00,,,0.00,VWS V14.01,2013-02-04 19:55:00,
2013-02-04 15:05:00,19.9,5.3,29.83,West,264,11.0,17.9,52,0.00,,,0.00,VWS V14.01,2013-02-04 20:05:00,
2013-02-04 15:10:00,19.8,5.1,29.83,West,270,10.1,17.9,52,0.00,,,0.00,VWS V14.01,2013-02-04 20:10:00,
2013-02-04 15:20:00,19.4,5.6,29.83,SW,236,10.1,15.0,54,0.00,,,0.00,VWS V14.01,2013-02-04 20:20:00,
2013-02-04 15:30:00,19.0,6.4,29.83,West,268,10.1,13.2,57,0.00,,,0.00,VWS V14.01,2013-02-04 20:30:00,
2013-02-04 15:35:00,18.9,6.7,29.83,SSW,192,5.4,15.4,58,0.00,,,0.00,VWS V14.01,2013-02-04 20:35:00,
2013-02-04 15:45:00,18.5,6.7,29.83,SW,214,6.3,16.8,59,0.00,,,0.00,VWS V14.01,2013-02-04 20:45:00,
2013-02-04 15:50:00,18.5,6.7,29.83,WSW,241,4.0,15.0,59,0.00,,,0.00,VWS V14.01,2013-02-04 20:50:00,
2013-02-04 15:55:00,18.5,6.7,29.83,West,259,8.7,15.0,59,0.00,,,0.00,VWS V14.01,2013-02-04 20:55:00,
2013-02-04 16:05:00,18.3,6.5,29.83,SW,232,13.2,13.2,59,0.00,,,0.00,VWS V14.01,2013-02-04 21:05:00,
2013-02-04 16:15:00,18.1,6.7,29.83,West,271,8.7,15.0,60,0.00,,,0.00,VWS V14.01,2013-02-04 21:15:00,
2013-02-04 16:20:00,18.1,6.7,29.83,SSW,209,7.6,15.0,60,0.00,,,0.00,VWS V14.01,2013-02-04 21:20:00,
2013-02-04 16:30:00,18.0,6.5,29.83,SW,224,6.3,10.1,60,0.00,,,0.00,VWS V14.01,2013-02-04 21:30:00,
2013-02-04 16:40:00,18.0,6.5,29.83,WSW,245,6.3,13.2,60,0.00,,,0.00,VWS V14.01,2013-02-04 21:40:00,
2013-02-04 16:45:00,18.0,6.5,29.83,WSW,255,7.6,13.6,60,0.00,,,0.00,VWS V14.01,2013-02-04 21:45:00,
2013-02-04 16:55:00,18.0,6.5,29.83,SW,233,8.7,13.2,60,0.00,,,0.00,VWS V14.01,2013-02-04 21:55:00,
2013-02-04 17:05:00,18.0,6.2,29.83,West,274,8.3,15.0,59,0.00,,,0.00,VWS V14.01,2013-02-04 22:05:00,
2013-02-04 17:10:00,18.0,6.2,29.83,SW,226,8.1,13.2,59,0.00,,,0.00,VWS V14.01,2013-02-04 22:10:00,
2013-02-04 17:15:00,18.0,6.2,29.83,SW,230,6.3,13.2,59,0.00,,,0.00,VWS V14.01,2013-02-04 22:15:00,
2013-02-04 17:25:00,17.8,6.0,29.83,SSW,213,8.3,12.8,59,0.00,,,0.00,VWS V14.01,2013-02-04 22:25:00,
2013-02-04 17:30:00,17.8,6.0,29.83,WSW,239,10.5,12.3,59,0.00,,,0.00,VWS V14.01,2013-02-04 22:30:00,
2013-02-04 17:40:00,17.8,6.0,29.83,WSW,248,5.4,13.2,59,0.00,,,0.00,VWS V14.01,2013-02-04 22:40:00,
2013-02-04 17:50:00,17.6,6.2,29.83,West,268,4.0,10.1,60,0.00,,,0.00,VWS V14.01,2013-02-04 22:50:00,
2013-02-04 17:55:00,17.6,6.2,29.83,SW,217,5.4,10.1,60,0.00,,,0.00,VWS V14.01,2013-02-04 22:55:00,
2013-02-04 18:05:00,17.6,6.2,29.83,WSW,254,6.3,8.7,60,0.00,,,0.00,VWS V14.01,2013-02-04 23:05:00,
2013-02-04 18:15:00,17.6,6.2,29.83,SSW,205,3.6,10.1,60,0.00,,,0.00,VWS V14.01,2013-02-04 23:15:00,
2013-02-04 18:20:00,17.6,6.2,29.83,WSW,255,7.6,10.1,60,0.00,,,0.00,VWS V14.01,2013-02-04 23:20:00,
2013-02-04 18:25:00,17.6,6.2,29.83,WSW,256,3.6,8.7,60,0.00,,,0.00,VWS V14.01,2013-02-04 23:25:00,
2013-02-04 18:35:00,17.6,6.2,29.83,SW,235,3.1,8.7,60,0.00,,,0.00,VWS V14.01,2013-02-04 23:35:00,
2013-02-04 18:40:00,17.6,6.2,29.83,WSW,245,2.7,7.6,60,0.00,,,0.00,VWS V14.01,2013-02-04 23:40:00,
2013-02-04 18:50:00,17.6,6.2,29.83,WSW,237,2.2,6.3,60,0.00,,,0.00,VWS V14.01,2013-02-04 23:50:00,
2013-02-04 19:00:00,17.6,6.2,29.85,SSW,208,2.2,4.9,60,0.00,,,0.00,VWS V14.01,2013-02-05 00:00:00,
2013-02-04 19:05:00,17.6,6.2,29.85,SW,224,6.3,6.3,60,0.00,,,0.00,VWS V14.01,2013-02-05 00:05:00,
2013-02-04 19:15:00,17.6,6.2,29.85,SSW,213,4.9,7.6,60,0.00,,,0.00,VWS V14.01,2013-02-05 00:15:00,
2013-02-04 19:25:00,17.6,6.2,29.85,SW,217,2.2,7.6,60,0.00,,,0.00,VWS V14.01,2013-02-05 00:25:00,
2013-02-04 19:35:00,17.6,6.2,29.85,WSW,238,3.6,6.7,60,0.00,,,0.00,VWS V14.01,2013-02-05 00:35:00,
2013-02-04 19:45:00,17.6,6.2,29.85,SSW,209,4.0,5.4,60,0.00,,,0.00,VWS V14.01,2013-02-05 00:45:00,
2013-02-04 19:50:00,17.4,6.0,29.85,SSW,205,3.1,5.4,60,0.00,,,0.00,VWS V14.01,2013-02-05 00:50:00,
2013-02-04 19:55:00,17.4,6.0,29.85,WSW,258,5.8,6.3,60,0.00,,,0.00,VWS V14.01,2013-02-05 00:55:00,
2013-02-04 20:00:00,17.6,6.2,29.85,SW,227,4.9,7.6,60,0.00,,,0.00,VWS V14.01,2013-02-05 01:00:00,
2013-02-04 20:10:00,17.6,6.2,29.85,WSW,251,5.4,6.3,60,0.00,,,0.00,VWS V14.01,2013-02-05 01:10:00,
2013-02-04 20:15:00,17.4,6.0,29.85,SW,231,0.0,6.3,60,0.00,,,0.00,VWS V14.01,2013-02-05 01:15:00,
2013-02-04 20:25:00,17.4,6.0,29.85,West,273,3.6,7.6,60,0.00,,,0.00,VWS V14.01,2013-02-05 01:25:00,
2013-02-04 20:35:00,17.4,6.0,29.85,West,274,3.1,6.3,60,0.00,,,0.00,VWS V14.01,2013-02-05 01:35:00,
2013-02-04 20:40:00,17.4,6.0,29.85,SW,221,4.0,6.3,60,0.00,,,0.00,VWS V14.01,2013-02-05 01:40:00,
2013-02-04 20:45:00,17.4,6.0,29.85,West,261,0.0,5.4,60,0.00,,,0.00,VWS V14.01,2013-02-05 01:45:00,
2013-02-04 20:55:00,17.4,6.0,29.85,West,261,3.1,4.9,60,0.00,,,0.00,VWS V14.01,2013-02-05 01:55:00,
2013-02-04 21:00:00,17.4,6.0,29.85,West,261,0.0,4.9,60,0.00,,,0.00,VWS V14.01,2013-02-05 02:00:00,
2013-02-04 21:10:00,17.4,6.0,29.85,WNW,286,5.4,6.3,60,0.00,,,0.00,VWS V14.01,2013-02-05 02:10:00,
2013-02-04 21:20:00,17.4,6.0,29.85,WSW,255,3.6,5.8,60,0.00,,,0.00,VWS V14.01,2013-02-05 02:20:00,
2013-02-04 21:25:00,17.4,6.0,29.85,West,275,0.0,6.3,60,0.00,,,0.00,VWS V14.01,2013-02-05 02:25:00,
2013-02-04 21:35:00,17.4,6.0,29.85,West,281,4.5,4.9,60,0.00,,,0.00,VWS V14.01,2013-02-05 02:35:00,
2013-02-04 21:45:00,17.4,6.0,29.85,West,268,5.4,5.4,60,0.00,,,0.00,VWS V14.01,2013-02-05 02:45:00,
2013-02-04 21:55:00,17.4,6.0,29.85,WNW,283,3.6,5.4,60,0.00,,,0.00,VWS V14.01,2013-02-05 02:55:00,
2013-02-04 22:05:00,17.4,6.0,29.85,WSW,257,3.1,5.4,60,0.00,,,0.00,VWS V14.01,2013-02-05 03:05:00,
2013-02-04 22:10:00,17.6,6.2,29.85,West,278,0.0,5.4,60,0.00,,,0.00,VWS V14.01,2013-02-05 03:10:00,
2013-02-04 22:20:00,17.6,6.6,29.85,WNW,282,3.6,5.4,61,0.00,,,0.00,VWS V14.01,2013-02-05 03:20:00,
2013-02-04 22:30:00,17.6,6.6,29.85,SW,219,0.0,5.4,61,0.00,,,0.00,VWS V14.01,2013-02-05 03:30:00,
2013-02-04 22:35:00,17.6,6.6,29.85,SW,222,2.2,4.0,61,0.00,,,0.00,VWS V14.01,2013-02-05 03:35:00,
2013-02-04 22:45:00,17.4,6.4,29.85,SW,222,0.0,3.1,61,0.00,,,0.00,VWS V14.01,2013-02-05 03:45:00,
2013-02-04 22:55:00,17.4,6.4,29.85,SW,221,2.2,4.0,61,0.00,,,0.00,VWS V14.01,2013-02-05 03:55:00,
2013-02-04 23:00:00,17.4,6.4,29.85,SW,221,0.0,4.0,61,0.00,,,0.00,VWS V14.01,2013-02-05 04:00:00,
2013-02-04 23:05:00,17.4,6.4,29.85,SW,221,0.0,4.0,61,0.00,,,0.00,VWS V14.01,2013-02-05 04:05:00,
2013-02-04 23:15:00,17.6,6.6,29.85,NW,308,3.6,3.6,61,0.00,,,0.00,VWS V14.01,2013-02-05 04:15:00,
2013-02-04 23:20:00,17.6,6.9,29.85,NW,315,2.7,3.6,62,0.00,,,0.00,VWS V14.01,2013-02-05 04:20:00,
2013-02-04 23:30:00,17.6,6.9,29.85,NW,312,2.2,4.0,62,0.00,,,0.00,VWS V14.01,2013-02-05 04:30:00,
2013-02-04 23:40:00,17.6,6.9,29.85,NNW,328,2.2,3.1,62,0.00,,,0.00,VWS V14.01,2013-02-05 04:40:00,
2013-02-04 23:45:00,17.6,6.9,29.85,NNW,328,0.0,3.1,62,0.00,,,0.00,VWS V14.01,2013-02-05 04:45:00,
2013-02-04 23:55:00,17.4,6.8,29.85,NNW,328,2.7,3.1,62,0.00,,,0.00,VWS V14.01,2013-02-05 04:55:00,